createdAt,value
2018-06-18T01:29:43.419Z,1017.94
2018-06-18T01:29:43.996Z,1017.95
2018-06-18T01:29:44.596Z,1017.91
2018-06-18T01:29:45.195Z,1017.94
2018-06-18T01:29:45.794Z,1017.91
2018-06-18T01:29:46.394Z,1017.95
2018-06-18T01:29:46.993Z,1017.95
2018-06-18T01:29:47.596Z,1017.95
2018-06-18T01:30:42.098Z,1017.93
2018-06-18T01:30:42.671Z,1017.89
2018-06-18T01:30:43.270Z,1017.92
2018-06-18T01:30:43.872Z,1017.93
2018-06-18T01:30:44.470Z,1017.95
2018-06-18T01:30:45.069Z,1017.91
2018-06-18T01:30:45.673Z,1017.94
2018-06-18T01:30:46.270Z,1017.92
2018-06-18T01:31:39.751Z,1017.96
2018-06-18T01:31:40.323Z,1017.94
2018-06-18T01:31:40.974Z,1017.92
2018-06-18T01:31:41.525Z,1017.92
2018-06-18T01:31:42.123Z,1017.93
2018-06-18T01:31:42.723Z,1017.90
2018-06-18T01:31:43.322Z,1017.90
2018-06-18T01:31:43.925Z,1017.92
2018-06-18T01:32:38.427Z,1017.92
2018-06-18T01:32:38.999Z,1017.93
2018-06-18T01:32:39.600Z,1017.92
2018-06-18T01:32:40.203Z,1017.93
2018-06-18T01:32:40.800Z,1017.93
2018-06-18T01:32:41.400Z,1017.90
2018-06-18T01:32:41.998Z,1017.91
2018-06-18T01:32:42.600Z,1017.90
2018-06-18T01:33:37.104Z,1017.87
2018-06-18T01:33:37.674Z,1017.84
2018-06-18T01:33:38.276Z,1017.88
2018-06-18T01:33:38.875Z,1017.92
2018-06-18T01:33:39.477Z,1017.90
2018-06-18T01:33:40.073Z,1017.92
2018-06-18T01:33:40.673Z,1017.89
2018-06-18T01:33:41.274Z,1017.90
2018-06-18T01:34:34.753Z,1017.87
2018-06-18T01:34:35.328Z,1017.85
2018-06-18T01:34:35.929Z,1017.88
2018-06-18T01:34:36.528Z,1017.84
2018-06-18T01:34:37.139Z,1017.86
2018-06-18T01:34:37.730Z,1017.87
2018-06-18T01:34:38.331Z,1017.86
2018-06-18T01:34:38.926Z,1017.88
2018-06-18T01:35:32.408Z,1017.84
2018-06-18T01:35:32.981Z,1017.85
2018-06-18T01:35:33.580Z,1017.87
2018-06-18T01:35:34.180Z,1017.81
2018-06-18T01:35:34.781Z,1017.86
2018-06-18T01:35:35.381Z,1017.85
2018-06-18T01:35:35.980Z,1017.86
2018-06-18T01:35:36.580Z,1017.89
2018-06-18T01:36:30.060Z,1017.82
2018-06-18T01:36:30.633Z,1017.82
2018-06-18T01:36:31.232Z,1017.79
2018-06-18T01:36:31.832Z,1017.81
2018-06-18T01:36:32.437Z,1017.83
2018-06-18T01:36:33.033Z,1017.85
2018-06-18T01:36:33.632Z,1017.77
2018-06-18T01:36:34.233Z,1017.83
2018-06-18T01:37:27.710Z,1017.82
2018-06-18T01:37:28.284Z,1017.79
2018-06-18T01:37:28.889Z,1017.79
2018-06-18T01:37:29.485Z,1017.81
2018-06-18T01:37:30.126Z,1017.81
2018-06-18T01:37:30.685Z,1017.76
2018-06-18T01:37:31.284Z,1017.79
2018-06-18T01:37:31.883Z,1017.83
2018-06-18T01:38:26.387Z,1017.81
2018-06-18T01:38:26.960Z,1017.80
2018-06-18T01:38:27.559Z,1017.77
2018-06-18T01:38:28.163Z,1017.79
2018-06-18T01:38:28.759Z,1017.79
2018-06-18T01:38:29.360Z,1017.79
2018-06-18T01:38:29.959Z,1017.79
2018-06-18T01:38:30.561Z,1017.80
2018-06-18T01:39:24.037Z,1017.78
2018-06-18T01:39:24.614Z,1017.80
2018-06-18T01:39:25.214Z,1017.78
2018-06-18T01:39:25.812Z,1017.80
2018-06-18T01:39:26.415Z,1017.79
2018-06-18T01:39:27.014Z,1017.80
2018-06-18T01:39:27.612Z,1017.80
2018-06-18T01:39:28.212Z,1017.78
2018-06-18T01:40:22.717Z,1017.82
2018-06-18T01:40:23.287Z,1017.81
2018-06-18T01:40:23.887Z,1017.81
2018-06-18T01:40:24.487Z,1017.79
2018-06-18T01:40:25.087Z,1017.80
2018-06-18T01:40:25.689Z,1017.82
2018-06-18T01:40:26.287Z,1017.81
2018-06-18T01:40:26.887Z,1017.82
2018-06-18T01:41:21.390Z,1017.82
2018-06-18T01:41:21.965Z,1017.78
2018-06-18T01:41:22.562Z,1017.79
2018-06-18T01:41:23.162Z,1017.78
2018-06-18T01:41:23.763Z,1017.78
2018-06-18T01:41:24.363Z,1017.75
2018-06-18T01:41:24.965Z,1017.79
2018-06-18T01:41:25.563Z,1017.79
2018-06-18T01:42:20.067Z,1017.76
2018-06-18T01:42:20.639Z,1017.81
2018-06-18T01:42:21.239Z,1017.80
2018-06-18T01:42:21.839Z,1017.81
2018-06-18T01:42:22.439Z,1017.78
2018-06-18T01:42:23.040Z,1017.76
2018-06-18T01:42:23.641Z,1017.78
2018-06-18T01:42:24.239Z,1017.77
2018-06-18T01:43:17.766Z,1017.80
2018-06-18T01:43:18.292Z,1017.81
2018-06-18T01:43:18.891Z,1017.78
2018-06-18T01:43:19.494Z,1017.76
2018-06-18T01:43:20.092Z,1017.78
2018-06-18T01:43:20.692Z,1017.79
2018-06-18T01:43:21.291Z,1017.78
2018-06-18T01:43:21.891Z,1017.79
2018-06-18T01:44:15.370Z,1017.80
2018-06-18T01:44:15.944Z,1017.78
2018-06-18T01:44:16.543Z,1017.79
2018-06-18T01:44:17.145Z,1017.79
2018-06-18T01:44:17.742Z,1017.78
2018-06-18T01:44:18.344Z,1017.81
2018-06-18T01:44:18.942Z,1017.78
2018-06-18T01:44:19.543Z,1017.81
2018-06-18T01:45:14.047Z,1017.82
2018-06-18T01:45:14.618Z,1017.81
2018-06-18T01:45:15.219Z,1017.82
2018-06-18T01:45:15.819Z,1017.84
2018-06-18T01:45:16.419Z,1017.82
2018-06-18T01:45:17.019Z,1017.83
2018-06-18T01:45:17.617Z,1017.82
2018-06-18T01:45:18.218Z,1017.78
2018-06-18T01:46:11.698Z,1017.84
2018-06-18T01:46:12.272Z,1017.85
2018-06-18T01:46:12.871Z,1017.86
2018-06-18T01:46:13.471Z,1017.88
2018-06-18T01:46:14.071Z,1017.83
2018-06-18T01:46:14.671Z,1017.84
2018-06-18T01:46:15.271Z,1017.87
2018-06-18T01:46:15.871Z,1017.85
2018-06-18T01:47:10.375Z,1017.85
2018-06-18T01:47:10.955Z,1017.83
2018-06-18T01:47:11.546Z,1017.87
2018-06-18T01:47:12.146Z,1017.84
2018-06-18T01:47:12.746Z,1017.84
2018-06-18T01:47:13.346Z,1017.84
2018-06-18T01:47:13.946Z,1017.86
2018-06-18T01:47:14.545Z,1017.86
2018-06-18T01:48:08.024Z,1017.86
2018-06-18T01:48:08.599Z,1017.86
2018-06-18T01:48:09.200Z,1017.82
2018-06-18T01:48:09.799Z,1017.84
2018-06-18T01:48:10.400Z,1017.86
2018-06-18T01:48:11.000Z,1017.83
2018-06-18T01:48:11.601Z,1017.86
2018-06-18T01:48:12.196Z,1017.85
2018-06-18T01:49:06.703Z,1017.85
2018-06-18T01:49:07.274Z,1017.84
2018-06-18T01:49:07.877Z,1017.83
2018-06-18T01:49:08.474Z,1017.86
2018-06-18T01:49:09.073Z,1017.86
2018-06-18T01:49:09.673Z,1017.86
2018-06-18T01:49:10.274Z,1017.85
2018-06-18T01:49:10.873Z,1017.87
2018-06-18T01:50:04.352Z,1017.91
2018-06-18T01:50:04.926Z,1017.88
2018-06-18T01:50:05.527Z,1017.87
2018-06-18T01:50:06.129Z,1017.86
2018-06-18T01:50:06.726Z,1017.89
2018-06-18T01:50:07.327Z,1017.89
2018-06-18T01:50:07.926Z,1017.87
2018-06-18T01:50:08.525Z,1017.90
2018-06-18T01:51:03.029Z,1017.87
2018-06-18T01:51:03.601Z,1017.90
2018-06-18T01:51:04.201Z,1017.90
2018-06-18T01:51:04.803Z,1017.88
2018-06-18T01:51:05.401Z,1017.88
2018-06-18T01:51:06.002Z,1017.88
2018-06-18T01:51:06.600Z,1017.90
2018-06-18T01:51:07.202Z,1017.92
2018-06-18T01:52:01.707Z,1017.87
2018-06-18T01:52:02.274Z,1017.87
2018-06-18T01:52:02.875Z,1017.88
2018-06-18T01:52:03.474Z,1017.87
2018-06-18T01:52:04.075Z,1017.87
2018-06-18T01:52:04.674Z,1017.88
2018-06-18T01:52:05.279Z,1017.87
2018-06-18T01:52:05.874Z,1017.89
2018-06-18T01:52:59.355Z,1017.84
2018-06-18T01:52:59.931Z,1017.86
2018-06-18T01:53:00.530Z,1017.82
2018-06-18T01:53:01.130Z,1017.88
2018-06-18T01:53:01.730Z,1017.86
2018-06-18T01:53:02.330Z,1017.88
2018-06-18T01:53:02.928Z,1017.83
2018-06-18T01:53:03.531Z,1017.85
2018-06-18T01:53:58.034Z,1017.87
2018-06-18T01:53:58.604Z,1017.87
2018-06-18T01:53:59.205Z,1017.87
2018-06-18T01:53:59.804Z,1017.84
2018-06-18T01:54:00.405Z,1017.83
2018-06-18T01:54:01.004Z,1017.88
2018-06-18T01:54:01.607Z,1017.84
2018-06-18T01:54:02.205Z,1017.89
2018-06-18T01:54:55.683Z,1017.87
2018-06-18T01:54:56.257Z,1017.85
2018-06-18T01:54:56.856Z,1017.83
2018-06-18T01:54:57.458Z,1017.85
2018-06-18T01:54:58.057Z,1017.82
2018-06-18T01:54:58.657Z,1017.86
2018-06-18T01:54:59.256Z,1017.86
2018-06-18T01:54:59.856Z,1017.86
2018-06-18T01:55:54.361Z,1017.82
2018-06-18T01:55:54.933Z,1017.84
2018-06-18T01:55:55.531Z,1017.82
2018-06-18T01:55:56.133Z,1017.83
2018-06-18T01:55:56.732Z,1017.85
2018-06-18T01:55:57.332Z,1017.84
2018-06-18T01:55:57.935Z,1017.87
2018-06-18T01:55:58.532Z,1017.83
2018-06-18T01:56:52.010Z,1017.84
2018-06-18T01:56:52.584Z,1017.84
2018-06-18T01:56:53.185Z,1017.83
2018-06-18T01:56:53.785Z,1017.80
2018-06-18T01:56:54.385Z,1017.83
2018-06-18T01:56:54.984Z,1017.82
2018-06-18T01:56:55.585Z,1017.82
2018-06-18T01:56:56.185Z,1017.83
2018-06-18T01:57:49.662Z,1017.87
2018-06-18T01:57:50.236Z,1017.87
2018-06-18T01:57:50.840Z,1017.86
2018-06-18T01:57:51.437Z,1017.85
2018-06-18T01:57:52.035Z,1017.87
2018-06-18T01:57:52.640Z,1017.85
2018-06-18T01:57:53.236Z,1017.86
2018-06-18T01:57:53.835Z,1017.88
2018-06-18T01:58:48.340Z,1017.84
2018-06-18T01:58:48.912Z,1017.82
2018-06-18T01:58:49.511Z,1017.85
2018-06-18T01:58:50.114Z,1017.87
2018-06-18T01:58:50.711Z,1017.85
2018-06-18T01:58:51.311Z,1017.84
2018-06-18T01:58:51.911Z,1017.87
2018-06-18T01:58:52.510Z,1017.82
2018-06-18T01:59:45.990Z,1017.80
2018-06-18T01:59:46.564Z,1017.85
2018-06-18T01:59:47.165Z,1017.85
2018-06-18T01:59:47.765Z,1017.81
2018-06-18T01:59:48.364Z,1017.85
2018-06-18T01:59:48.964Z,1017.85
2018-06-18T01:59:49.564Z,1017.85
2018-06-18T01:59:50.164Z,1017.84
2018-06-18T02:00:44.663Z,1017.84
2018-06-18T02:00:45.239Z,1017.82
2018-06-18T02:00:45.841Z,1017.84
2018-06-18T02:00:46.440Z,1017.86
2018-06-18T02:00:47.041Z,1017.86
2018-06-18T02:00:47.639Z,1017.87
2018-06-18T02:00:48.239Z,1017.83
2018-06-18T02:00:48.838Z,1017.87
2018-06-18T02:01:43.343Z,1017.85
2018-06-18T02:01:43.915Z,1017.87
2018-06-18T02:01:44.516Z,1017.85
2018-06-18T02:01:45.123Z,1017.86
2018-06-18T02:01:45.717Z,1017.85
2018-06-18T02:01:46.315Z,1017.87
2018-06-18T02:01:46.917Z,1017.89
2018-06-18T02:01:47.516Z,1017.88
2018-06-18T02:02:42.016Z,1017.86
2018-06-18T02:02:42.591Z,1017.89
2018-06-18T02:02:43.191Z,1017.90
2018-06-18T02:02:43.792Z,1017.89
2018-06-18T02:02:44.390Z,1017.89
2018-06-18T02:02:44.991Z,1017.87
2018-06-18T02:02:45.589Z,1017.87
2018-06-18T02:02:46.190Z,1017.84
2018-06-18T02:03:52.367Z,1017.88
2018-06-18T02:03:52.941Z,1017.85
2018-06-18T02:03:53.539Z,1017.89
2018-06-18T02:03:54.141Z,1017.85
2018-06-18T02:03:54.739Z,1017.87
2018-06-18T02:03:55.340Z,1017.89
2018-06-18T02:03:55.939Z,1017.87
2018-06-18T02:03:56.538Z,1017.88
2018-06-18T02:04:51.048Z,1017.87
2018-06-18T02:04:51.618Z,1017.88
2018-06-18T02:04:52.216Z,1017.87
2018-06-18T02:04:52.816Z,1017.88
2018-06-18T02:04:53.414Z,1017.87
2018-06-18T02:04:54.014Z,1017.88
2018-06-18T02:04:54.615Z,1017.87
2018-06-18T02:04:55.214Z,1017.89
2018-06-18T02:05:49.719Z,1017.83
2018-06-18T02:05:50.291Z,1017.85
2018-06-18T02:05:50.891Z,1017.85
2018-06-18T02:05:51.492Z,1017.83
2018-06-18T02:05:52.092Z,1017.83
2018-06-18T02:05:52.692Z,1017.85
2018-06-18T02:05:53.290Z,1017.84
2018-06-18T02:05:53.891Z,1017.86
2018-06-18T02:06:47.370Z,1017.85
2018-06-18T02:06:47.944Z,1017.85
2018-06-18T02:06:48.543Z,1017.84
2018-06-18T02:06:49.146Z,1017.84
2018-06-18T02:06:49.744Z,1017.87
2018-06-18T02:06:50.343Z,1017.84
2018-06-18T02:06:50.943Z,1017.82
2018-06-18T02:06:51.544Z,1017.84
2018-06-18T02:07:45.023Z,1017.85
2018-06-18T02:07:45.595Z,1017.86
2018-06-18T02:07:46.195Z,1017.89
2018-06-18T02:07:46.796Z,1017.87
2018-06-18T02:07:47.445Z,1017.86
2018-06-18T02:07:48.013Z,1017.87
2018-06-18T02:07:48.614Z,1017.89
2018-06-18T02:07:49.202Z,1017.84
2018-06-18T02:08:42.679Z,1017.85
2018-06-18T02:08:43.252Z,1017.86
2018-06-18T02:08:43.851Z,1017.84
2018-06-18T02:08:44.452Z,1017.87
2018-06-18T02:08:45.052Z,1017.88
2018-06-18T02:08:45.658Z,1017.92
2018-06-18T02:08:46.250Z,1017.91
2018-06-18T02:08:46.856Z,1017.88
2018-06-18T02:09:40.332Z,1017.89
2018-06-18T02:09:40.904Z,1017.89
2018-06-18T02:09:41.503Z,1017.89
2018-06-18T02:09:42.105Z,1017.89
2018-06-18T02:09:42.704Z,1017.91
2018-06-18T02:09:43.302Z,1017.90
2018-06-18T02:09:43.903Z,1017.90
2018-06-18T02:09:44.503Z,1017.88
2018-06-18T02:10:39.007Z,1017.90
2018-06-18T02:10:39.579Z,1017.92
2018-06-18T02:10:40.184Z,1017.92
2018-06-18T02:10:40.779Z,1017.87
2018-06-18T02:10:41.377Z,1017.91
2018-06-18T02:10:41.978Z,1017.88
2018-06-18T02:10:42.576Z,1017.88
2018-06-18T02:10:43.177Z,1017.90
2018-06-18T02:11:36.658Z,1017.85
2018-06-18T02:11:37.234Z,1017.88
2018-06-18T02:11:37.831Z,1017.85
2018-06-18T02:11:38.430Z,1017.90
2018-06-18T02:11:39.031Z,1017.86
2018-06-18T02:11:39.636Z,1017.87
2018-06-18T02:11:40.230Z,1017.89
2018-06-18T02:11:40.831Z,1017.89
2018-06-18T02:12:34.309Z,1017.91
2018-06-18T02:12:34.883Z,1017.86
2018-06-18T02:12:35.483Z,1017.88
2018-06-18T02:12:36.083Z,1017.88
2018-06-18T02:12:36.682Z,1017.86
2018-06-18T02:12:37.283Z,1017.88
2018-06-18T02:12:37.882Z,1017.92
2018-06-18T02:12:38.485Z,1017.92
2018-06-18T02:13:32.986Z,1017.95
2018-06-18T02:13:33.561Z,1017.95
2018-06-18T02:13:34.158Z,1017.94
2018-06-18T02:13:34.759Z,1017.94
2018-06-18T02:13:35.357Z,1017.93
2018-06-18T02:13:35.957Z,1017.95
2018-06-18T02:13:36.556Z,1017.94
2018-06-18T02:13:37.157Z,1017.94
2018-06-18T02:14:30.637Z,1018.00
2018-06-18T02:14:31.210Z,1017.95
2018-06-18T02:14:31.809Z,1017.97
2018-06-18T02:14:32.410Z,1017.95
2018-06-18T02:14:33.011Z,1017.94
2018-06-18T02:14:33.611Z,1017.93
2018-06-18T02:14:34.209Z,1017.96
2018-06-18T02:14:34.809Z,1017.95
2018-06-18T02:15:29.312Z,1017.94
2018-06-18T02:15:29.885Z,1017.94
2018-06-18T02:15:30.484Z,1017.93
2018-06-18T02:15:31.086Z,1017.94
2018-06-18T02:15:31.685Z,1017.94
2018-06-18T02:15:32.283Z,1017.97
2018-06-18T02:15:32.884Z,1017.97
2018-06-18T02:15:33.484Z,1017.98
2018-06-18T02:16:27.988Z,1017.94
2018-06-18T02:16:28.564Z,1017.92
2018-06-18T02:16:29.163Z,1017.91
2018-06-18T02:16:29.761Z,1017.93
2018-06-18T02:16:30.363Z,1017.93
2018-06-18T02:16:30.963Z,1017.92
2018-06-18T02:16:31.561Z,1017.93
2018-06-18T02:16:32.160Z,1017.93
2018-06-18T02:17:26.667Z,1017.94
2018-06-18T02:17:27.236Z,1017.93
2018-06-18T02:17:27.836Z,1017.91
2018-06-18T02:17:28.439Z,1017.93
2018-06-18T02:17:29.036Z,1017.90
2018-06-18T02:17:29.634Z,1017.96
2018-06-18T02:17:30.235Z,1017.92
2018-06-18T02:17:30.838Z,1017.93
2018-06-18T02:18:24.316Z,1017.92
2018-06-18T02:18:24.889Z,1017.91
2018-06-18T02:18:25.488Z,1017.96
2018-06-18T02:18:26.089Z,1017.87
2018-06-18T02:18:26.688Z,1017.94
2018-06-18T02:18:27.293Z,1017.91
2018-06-18T02:18:27.888Z,1017.90
2018-06-18T02:18:28.488Z,1017.90
2018-06-18T02:19:21.968Z,1017.91
2018-06-18T02:19:22.541Z,1017.94
2018-06-18T02:19:23.140Z,1017.89
2018-06-18T02:19:23.741Z,1017.89
2018-06-18T02:19:24.342Z,1017.91
2018-06-18T02:19:24.942Z,1017.93
2018-06-18T02:19:25.540Z,1017.91
2018-06-18T02:19:26.141Z,1017.95
2018-06-18T02:20:20.647Z,1017.94
2018-06-18T02:20:21.215Z,1017.91
2018-06-18T02:20:21.815Z,1017.90
2018-06-18T02:20:22.416Z,1017.90
2018-06-18T02:20:23.018Z,1017.91
2018-06-18T02:20:23.615Z,1017.91
2018-06-18T02:20:24.215Z,1017.95
2018-06-18T02:20:24.816Z,1017.93
2018-06-18T02:21:18.300Z,1017.91
2018-06-18T02:21:18.869Z,1017.93
2018-06-18T02:21:19.469Z,1017.94
2018-06-18T02:21:20.070Z,1017.91
2018-06-18T02:21:20.669Z,1017.94
2018-06-18T02:21:21.271Z,1017.92
2018-06-18T02:21:21.869Z,1017.91
2018-06-18T02:21:22.473Z,1017.92
2018-06-18T02:22:16.972Z,1017.90
2018-06-18T02:22:17.558Z,1017.91
2018-06-18T02:22:18.143Z,1017.92
2018-06-18T02:22:18.745Z,1017.90
2018-06-18T02:22:19.343Z,1017.91
2018-06-18T02:22:19.942Z,1017.92
2018-06-18T02:22:20.542Z,1017.91
2018-06-18T02:22:21.142Z,1017.92
2018-06-18T02:23:14.638Z,1017.91
2018-06-18T02:23:15.195Z,1017.89
2018-06-18T02:23:15.795Z,1017.91
2018-06-18T02:23:16.396Z,1017.91
2018-06-18T02:23:17.043Z,1017.93
2018-06-18T02:23:17.596Z,1017.92
2018-06-18T02:23:18.199Z,1017.92
2018-06-18T02:23:18.795Z,1017.91
2018-06-18T02:24:13.300Z,1017.91
2018-06-18T02:24:13.871Z,1017.95
2018-06-18T02:24:14.471Z,1017.92
2018-06-18T02:24:15.072Z,1017.92
2018-06-18T02:24:15.671Z,1017.91
2018-06-18T02:24:16.272Z,1017.90
2018-06-18T02:24:16.871Z,1017.92
2018-06-18T02:24:17.470Z,1017.90
2018-06-18T02:25:11.974Z,1017.90
2018-06-18T02:25:12.546Z,1017.89
2018-06-18T02:25:13.147Z,1017.90
2018-06-18T02:25:13.748Z,1017.94
2018-06-18T02:25:14.347Z,1017.92
2018-06-18T02:25:14.949Z,1017.89
2018-06-18T02:25:15.547Z,1017.89
2018-06-18T02:25:16.146Z,1017.91
2018-06-18T02:26:10.649Z,1017.91
2018-06-18T02:26:11.223Z,1017.90
2018-06-18T02:26:11.823Z,1017.90
2018-06-18T02:26:12.424Z,1017.90
2018-06-18T02:26:13.024Z,1017.89
2018-06-18T02:26:13.627Z,1017.94
2018-06-18T02:26:14.222Z,1017.91
2018-06-18T02:26:14.821Z,1017.89
2018-06-18T02:27:09.325Z,1017.87
2018-06-18T02:27:09.900Z,1017.88
2018-06-18T02:27:10.501Z,1017.88
2018-06-18T02:27:11.099Z,1017.87
2018-06-18T02:27:11.699Z,1017.91
2018-06-18T02:27:12.300Z,1017.90
2018-06-18T02:27:12.897Z,1017.90
2018-06-18T02:27:13.498Z,1017.92
2018-06-18T02:28:06.978Z,1017.90
2018-06-18T02:28:07.552Z,1017.88
2018-06-18T02:28:08.152Z,1017.92
2018-06-18T02:28:08.752Z,1017.91
2018-06-18T02:28:09.351Z,1017.88
2018-06-18T02:28:09.952Z,1017.90
2018-06-18T02:28:10.550Z,1017.91
2018-06-18T02:28:11.150Z,1017.90
2018-06-18T02:29:04.632Z,1017.95
2018-06-18T02:29:05.202Z,1017.91
2018-06-18T02:29:05.802Z,1017.91
2018-06-18T02:29:06.402Z,1017.95
2018-06-18T02:29:07.003Z,1017.93
2018-06-18T02:29:07.603Z,1017.93
2018-06-18T02:29:08.201Z,1017.91
2018-06-18T02:29:08.801Z,1017.89
2018-06-18T02:30:03.307Z,1017.91
2018-06-18T02:30:03.878Z,1017.90
2018-06-18T02:30:04.477Z,1017.93
2018-06-18T02:30:05.078Z,1017.91
2018-06-18T02:30:05.677Z,1017.93
2018-06-18T02:30:06.277Z,1017.94
2018-06-18T02:30:06.876Z,1017.92
2018-06-18T02:30:07.477Z,1017.92
2018-06-18T02:31:00.961Z,1017.91
2018-06-18T02:31:01.530Z,1017.93
2018-06-18T02:31:02.132Z,1017.89
2018-06-18T02:31:02.729Z,1017.91
2018-06-18T02:31:03.329Z,1017.93
2018-06-18T02:31:03.931Z,1017.90
2018-06-18T02:31:04.530Z,1017.93
2018-06-18T02:31:05.130Z,1017.91
2018-06-18T02:31:59.632Z,1017.91
2018-06-18T02:32:00.208Z,1017.92
2018-06-18T02:32:00.804Z,1017.87
2018-06-18T02:32:01.408Z,1017.92
2018-06-18T02:32:02.003Z,1017.89
2018-06-18T02:32:02.603Z,1017.90
2018-06-18T02:32:03.203Z,1017.89
2018-06-18T02:32:03.802Z,1017.92
2018-06-18T02:32:57.285Z,1017.95
2018-06-18T02:32:57.857Z,1017.93
2018-06-18T02:32:58.490Z,1017.95
2018-06-18T02:32:59.060Z,1017.95
2018-06-18T02:32:59.660Z,1017.93
2018-06-18T02:33:00.260Z,1017.97
2018-06-18T02:33:00.856Z,1017.94
2018-06-18T02:33:01.457Z,1017.96
2018-06-18T02:33:55.960Z,1017.94
2018-06-18T02:33:56.531Z,1017.97
2018-06-18T02:33:57.133Z,1017.99
2018-06-18T02:33:57.745Z,1018.00
2018-06-18T02:33:58.331Z,1017.98
2018-06-18T02:33:58.935Z,1017.97
2018-06-18T02:33:59.546Z,1017.98
2018-06-18T02:34:00.129Z,1017.96
2018-06-18T02:34:53.611Z,1018.01
2018-06-18T02:34:54.186Z,1018.04
2018-06-18T02:34:54.784Z,1018.00
2018-06-18T02:34:55.385Z,1017.99
2018-06-18T02:34:55.985Z,1017.99
2018-06-18T02:34:56.584Z,1017.97
2018-06-18T02:34:57.184Z,1018.01
2018-06-18T02:34:57.784Z,1018.00
2018-06-18T02:35:52.288Z,1018.04
2018-06-18T02:35:52.858Z,1018.02
2018-06-18T02:35:53.461Z,1017.98
2018-06-18T02:35:54.062Z,1018.04
2018-06-18T02:35:54.658Z,1018.04
2018-06-18T02:35:55.260Z,1018.04
2018-06-18T02:35:55.858Z,1018.02
2018-06-18T02:35:56.461Z,1018.03
2018-06-18T02:36:49.938Z,1018.03
2018-06-18T02:36:50.511Z,1018.02
2018-06-18T02:36:51.111Z,1018.05
2018-06-18T02:36:51.712Z,1018.04
2018-06-18T02:36:52.311Z,1018.05
2018-06-18T02:36:52.914Z,1018.04
2018-06-18T02:36:53.512Z,1018.02
2018-06-18T02:36:54.113Z,1018.06
2018-06-18T02:37:48.613Z,1018.04
2018-06-18T02:37:49.189Z,1018.06
2018-06-18T02:37:49.787Z,1018.04
2018-06-18T02:37:50.388Z,1018.05
2018-06-18T02:37:50.987Z,1018.06
2018-06-18T02:37:51.589Z,1018.04
2018-06-18T02:37:52.186Z,1018.03
2018-06-18T02:37:52.786Z,1018.00
2018-06-18T02:38:46.269Z,1018.02
2018-06-18T02:38:46.839Z,1018.01
2018-06-18T02:38:47.440Z,1018.03
2018-06-18T02:38:48.039Z,1018.00
2018-06-18T02:38:48.639Z,1018.00
2018-06-18T02:38:49.242Z,1018.02
2018-06-18T02:38:49.839Z,1018.01
2018-06-18T02:38:50.438Z,1018.01
2018-06-18T02:39:43.919Z,1018.07
2018-06-18T02:39:44.490Z,1018.04
2018-06-18T02:39:45.094Z,1018.05
2018-06-18T02:39:45.693Z,1018.03
2018-06-18T02:39:46.290Z,1018.05
2018-06-18T02:39:46.892Z,1018.03
2018-06-18T02:39:47.491Z,1018.05
2018-06-18T02:39:48.092Z,1018.07
2018-06-18T02:40:42.594Z,1018.07
2018-06-18T02:40:43.167Z,1018.03
2018-06-18T02:40:43.771Z,1018.00
2018-06-18T02:40:44.367Z,1017.99
2018-06-18T02:40:44.968Z,1018.05
2018-06-18T02:40:45.568Z,1018.00
2018-06-18T02:40:46.168Z,1018.05
2018-06-18T02:40:46.769Z,1018.04
2018-06-18T02:41:40.249Z,1018.04
2018-06-18T02:41:40.821Z,1018.07
2018-06-18T02:41:41.424Z,1018.03
2018-06-18T02:41:42.019Z,1018.02
2018-06-18T02:41:42.619Z,1018.05
2018-06-18T02:41:43.219Z,1018.05
2018-06-18T02:41:43.819Z,1018.03
2018-06-18T02:41:44.417Z,1018.06
2018-06-18T02:42:38.921Z,1018.06
2018-06-18T02:42:39.495Z,1018.07
2018-06-18T02:42:40.093Z,1018.09
2018-06-18T02:42:40.694Z,1018.08
2018-06-18T02:42:41.293Z,1018.08
2018-06-18T02:42:41.893Z,1018.07
2018-06-18T02:42:42.492Z,1018.02
2018-06-18T02:42:43.092Z,1018.05
2018-06-18T02:43:37.597Z,1018.05
2018-06-18T02:43:38.168Z,1018.03
2018-06-18T02:43:38.773Z,1018.06
2018-06-18T02:43:39.372Z,1018.07
2018-06-18T02:43:39.969Z,1018.05
2018-06-18T02:43:40.570Z,1018.05
2018-06-18T02:43:41.170Z,1018.07
2018-06-18T02:43:41.773Z,1018.03
2018-06-18T02:44:36.272Z,1018.06
2018-06-18T02:44:36.845Z,1018.04
2018-06-18T02:44:37.447Z,1018.02
2018-06-18T02:44:38.045Z,1018.05
2018-06-18T02:44:38.645Z,1018.04
2018-06-18T02:44:39.265Z,1018.01
2018-06-18T02:44:39.845Z,1018.06
2018-06-18T02:44:40.444Z,1018.02
2018-06-18T02:45:33.937Z,1018.03
2018-06-18T02:45:34.500Z,1018.03
2018-06-18T02:45:35.103Z,1018.03
2018-06-18T02:45:35.694Z,1018.03
2018-06-18T02:45:36.296Z,1017.99
2018-06-18T02:45:36.895Z,1018.02
2018-06-18T02:45:37.495Z,1018.04
2018-06-18T02:45:38.096Z,1018.00
2018-06-18T02:46:31.576Z,1017.99
2018-06-18T02:46:32.152Z,1017.99
2018-06-18T02:46:32.750Z,1017.99
2018-06-18T02:46:33.350Z,1018.00
2018-06-18T02:46:33.951Z,1018.00
2018-06-18T02:46:34.549Z,1018.00
2018-06-18T02:46:35.148Z,1017.98
2018-06-18T02:46:35.749Z,1017.99
2018-06-18T02:47:30.254Z,1018.02
2018-06-18T02:47:30.824Z,1017.97
2018-06-18T02:47:31.423Z,1018.00
2018-06-18T02:47:32.023Z,1017.98
2018-06-18T02:47:32.623Z,1018.00
2018-06-18T02:47:33.256Z,1018.00
2018-06-18T02:47:33.822Z,1017.99
2018-06-18T02:47:34.422Z,1017.99
2018-06-18T02:48:28.928Z,1017.97
2018-06-18T02:48:29.499Z,1017.97
2018-06-18T02:48:30.105Z,1017.96
2018-06-18T02:48:30.699Z,1017.95
2018-06-18T02:48:31.299Z,1017.96
2018-06-18T02:48:31.896Z,1018.00
2018-06-18T02:48:32.497Z,1017.98
2018-06-18T02:48:33.098Z,1017.97
2018-06-18T02:49:27.603Z,1017.96
2018-06-18T02:49:28.176Z,1017.97
2018-06-18T02:49:28.775Z,1017.98
2018-06-18T02:49:29.376Z,1018.00
2018-06-18T02:49:29.974Z,1017.98
2018-06-18T02:49:30.577Z,1017.97
2018-06-18T02:49:31.175Z,1017.97
2018-06-18T02:49:31.774Z,1017.99
2018-06-18T02:50:26.279Z,1017.96
2018-06-18T02:50:26.851Z,1017.97
2018-06-18T02:50:27.451Z,1017.95
2018-06-18T02:50:28.051Z,1017.91
2018-06-18T02:50:28.651Z,1017.97
2018-06-18T02:50:29.253Z,1017.91
2018-06-18T02:50:29.852Z,1017.97
2018-06-18T02:50:30.451Z,1017.94
2018-06-18T02:51:24.956Z,1017.96
2018-06-18T02:51:25.528Z,1017.96
2018-06-18T02:51:26.127Z,1017.92
2018-06-18T02:51:26.730Z,1017.92
2018-06-18T02:51:27.326Z,1017.95
2018-06-18T02:51:27.933Z,1017.96
2018-06-18T02:51:28.525Z,1017.97
2018-06-18T02:51:29.136Z,1017.94
2018-06-18T02:52:23.630Z,1017.92
2018-06-18T02:52:24.202Z,1017.93
2018-06-18T02:52:24.801Z,1017.92
2018-06-18T02:52:25.404Z,1017.91
2018-06-18T02:52:26.004Z,1017.94
2018-06-18T02:52:26.603Z,1017.91
2018-06-18T02:52:27.202Z,1017.95
2018-06-18T02:52:27.802Z,1017.95
2018-06-18T02:53:22.307Z,1017.91
2018-06-18T02:53:22.879Z,1017.90
2018-06-18T02:53:23.479Z,1017.87
2018-06-18T02:53:24.080Z,1017.93
2018-06-18T02:53:24.682Z,1017.92
2018-06-18T02:53:25.279Z,1017.90
2018-06-18T02:53:25.879Z,1017.94
2018-06-18T02:53:26.479Z,1017.88
2018-06-18T02:54:19.959Z,1017.93
2018-06-18T02:54:20.534Z,1017.89
2018-06-18T02:54:21.134Z,1017.87
2018-06-18T02:54:21.731Z,1017.86
2018-06-18T02:54:22.333Z,1017.86
2018-06-18T02:54:22.931Z,1017.93
2018-06-18T02:54:23.532Z,1017.89
2018-06-18T02:54:24.133Z,1017.93
2018-06-18T02:55:18.635Z,1017.89
2018-06-18T02:55:19.205Z,1017.81
2018-06-18T02:55:19.805Z,1017.84
2018-06-18T02:55:20.406Z,1017.83
2018-06-18T02:55:21.004Z,1017.87
2018-06-18T02:55:21.607Z,1017.85
2018-06-18T02:55:22.206Z,1017.84
2018-06-18T02:55:22.805Z,1017.89
2018-06-18T02:56:16.285Z,1017.86
2018-06-18T02:56:16.859Z,1017.86
2018-06-18T02:56:17.458Z,1017.85
2018-06-18T02:56:18.058Z,1017.86
2018-06-18T02:56:18.657Z,1017.85
2018-06-18T02:56:19.260Z,1017.84
2018-06-18T02:56:19.858Z,1017.87
2018-06-18T02:56:20.458Z,1017.87
2018-06-18T02:57:14.962Z,1017.88
2018-06-18T02:57:15.533Z,1017.86
2018-06-18T02:57:16.133Z,1017.89
2018-06-18T02:57:16.736Z,1017.87
2018-06-18T02:57:17.333Z,1017.87
2018-06-18T02:57:17.934Z,1017.87